createdAt,value
2019-05-30T00:00:17.449Z,91.40
2019-05-30T00:02:45.428Z,91.10
2019-05-30T00:05:14.816Z,90.70
2019-05-30T00:07:44.176Z,90.50
2019-05-30T00:10:13.653Z,90.40
2019-05-30T00:12:43.106Z,90.00
2019-05-30T00:15:12.739Z,90.10
2019-05-30T00:17:42.097Z,90.00
2019-05-30T00:20:11.532Z,90.10
2019-05-30T00:22:40.979Z,90.20
2019-05-30T00:25:11.132Z,90.40
2019-05-30T00:27:40.534Z,90.50
2019-05-30T00:30:23.804Z,90.60
2019-05-30T00:32:42.930Z,90.90
2019-05-30T00:35:12.559Z,91.20
2019-05-30T00:37:42.173Z,91.30
2019-05-30T00:40:13.184Z,92.00
2019-05-30T00:42:42.562Z,92.10
2019-05-30T00:45:20.885Z,92.40
2019-05-30T00:47:44.714Z,92.70
2019-05-30T00:50:14.485Z,93.30
2019-05-30T00:52:45.296Z,93.60
2019-05-30T00:55:15.980Z,94.10
2019-05-30T00:57:45.285Z,94.90
2019-05-30T01:00:15.077Z,96.20
2019-05-30T01:02:44.620Z,97.20
2019-05-30T01:05:14.301Z,98.10
2019-05-30T01:07:43.880Z,98.80
2019-05-30T01:10:13.539Z,99.50
2019-05-30T01:12:43.053Z,99.90
2019-05-30T01:15:12.705Z,99.90
2019-05-30T01:17:42.109Z,99.90
2019-05-30T01:20:13.150Z,99.90
2019-05-30T01:22:42.608Z,99.90
2019-05-30T01:25:12.540Z,99.90
2019-05-30T01:27:42.055Z,99.90
2019-05-30T01:30:13.972Z,99.90
2019-05-30T01:32:45.146Z,99.90
2019-05-30T01:35:15.787Z,99.90
2019-05-30T01:37:45.071Z,99.90
2019-05-30T01:40:14.809Z,99.90
2019-05-30T01:42:44.183Z,99.90
2019-05-30T01:45:14.429Z,99.90
2019-05-30T01:47:43.772Z,99.90
2019-05-30T01:50:13.416Z,99.90
2019-05-30T01:52:42.833Z,99.90
2019-05-30T01:55:13.378Z,99.90
2019-05-30T01:57:42.693Z,99.90
2019-05-30T02:00:20.732Z,99.90
2019-05-30T02:02:45.460Z,99.90
2019-05-30T02:05:16.376Z,99.90
2019-05-30T02:07:45.662Z,99.90
2019-05-30T02:10:15.551Z,99.90
2019-05-30T02:12:44.971Z,99.90
2019-05-30T02:15:17.380Z,99.90
2019-05-30T02:17:46.769Z,99.90
2019-05-30T02:20:35.123Z,99.90
2019-05-30T02:23:07.307Z,99.90
2019-05-30T02:25:35.436Z,99.90
2019-05-30T02:28:06.172Z,99.90
2019-05-30T02:30:35.643Z,99.90
2019-05-30T02:33:05.727Z,99.90
2019-05-30T02:35:36.015Z,99.90
2019-05-30T02:38:07.217Z,99.90
2019-05-30T02:40:36.779Z,99.90
2019-05-30T02:43:07.519Z,99.90
2019-05-30T02:45:37.117Z,99.90
2019-05-30T02:48:07.364Z,99.90
2019-05-30T02:50:37.033Z,99.90
2019-05-30T02:53:08.043Z,99.90
2019-05-30T02:55:37.491Z,99.90
2019-05-30T02:58:08.637Z,99.90
2019-05-30T03:00:38.324Z,99.90
2019-05-30T03:03:09.839Z,99.90
2019-05-30T03:05:38.790Z,99.90
2019-05-30T03:08:11.173Z,99.90
2019-05-30T03:10:40.014Z,99.90
2019-05-30T03:13:11.210Z,99.90
2019-05-30T03:15:40.581Z,99.90
2019-05-30T03:18:12.287Z,99.90
2019-05-30T03:20:40.929Z,99.90
2019-05-30T03:23:14.469Z,99.90
2019-05-30T03:25:41.329Z,99.90
2019-05-30T03:28:11.873Z,99.90
2019-05-30T03:30:43.697Z,99.90
2019-05-30T03:33:31.597Z,99.90
2019-05-30T03:35:44.655Z,99.90
2019-05-30T03:38:15.593Z,99.90
2019-05-30T03:40:45.579Z,99.90
2019-05-30T03:43:16.068Z,99.90
2019-05-30T03:45:46.377Z,99.90
2019-05-30T03:48:18.856Z,99.90
2019-05-30T03:50:51.602Z,99.90
2019-05-30T03:53:21.534Z,99.90
2019-05-30T03:55:55.527Z,99.90
2019-05-30T03:58:36.756Z,99.90
2019-05-30T04:01:29.417Z,99.90
2019-05-30T04:04:12.187Z,99.90
2019-05-30T04:07:06.918Z,99.90
2019-05-30T04:09:28.838Z,99.90
2019-05-30T04:12:13.861Z,99.90
2019-05-30T04:14:46.858Z,99.90
2019-05-30T04:17:20.036Z,99.90
2019-05-30T04:19:49.805Z,99.90
2019-05-30T04:22:19.580Z,99.90
2019-05-30T04:24:49.591Z,99.90
2019-05-30T04:27:18.913Z,99.90
2019-05-30T04:29:48.211Z,99.90
2019-05-30T04:32:18.656Z,99.90
2019-05-30T04:34:48.180Z,99.90
2019-05-30T04:37:18.929Z,99.90
2019-05-30T04:39:48.481Z,99.90
2019-05-30T04:42:20.568Z,99.90
2019-05-30T04:44:49.618Z,99.90
2019-05-30T04:47:20.603Z,99.90
2019-05-30T04:49:50.208Z,99.90
2019-05-30T04:52:23.977Z,99.90
2019-05-30T04:54:50.582Z,99.90
2019-05-30T04:57:25.640Z,99.90
2019-05-30T04:59:51.160Z,99.90
2019-05-30T05:02:21.195Z,99.90
2019-05-30T05:04:51.498Z,99.90
2019-05-30T05:07:22.073Z,99.90
2019-05-30T05:09:51.671Z,99.90
2019-05-30T05:12:22.313Z,99.90
2019-05-30T05:14:51.947Z,99.90
2019-05-30T05:17:21.253Z,99.90
2019-05-30T05:19:50.576Z,99.90
2019-05-30T05:22:20.948Z,99.90
2019-05-30T05:24:50.551Z,99.90
2019-05-30T05:27:19.896Z,99.90
2019-05-30T05:29:49.198Z,99.90
2019-05-30T05:32:18.554Z,99.90
2019-05-30T05:34:47.996Z,99.90
2019-05-30T05:37:17.356Z,99.90
2019-05-30T05:39:46.764Z,99.90
2019-05-30T05:42:16.281Z,99.90
2019-05-30T05:44:45.731Z,99.90
2019-05-30T05:47:16.296Z,99.90
2019-05-30T05:49:45.811Z,99.90
2019-05-30T05:52:15.142Z,99.90
2019-05-30T05:54:44.500Z,99.90
2019-05-30T05:57:13.973Z,99.90
2019-05-30T05:59:43.468Z,99.90
2019-05-30T06:02:12.936Z,99.90
2019-05-30T06:04:42.756Z,99.90
2019-05-30T06:07:12.039Z,99.90
2019-05-30T06:09:41.376Z,99.90
2019-05-30T06:12:10.741Z,99.90
2019-05-30T06:14:40.193Z,99.90
2019-05-30T06:17:09.878Z,99.90
2019-05-30T06:19:46.560Z,99.90
2019-05-30T06:22:10.525Z,99.90
2019-05-30T06:24:41.523Z,99.90
2019-05-30T06:27:11.046Z,99.90
2019-05-30T06:29:40.421Z,99.90
2019-05-30T06:32:10.158Z,99.90
2019-05-30T06:34:40.146Z,99.90
2019-05-30T06:37:12.033Z,99.90
2019-05-30T06:39:40.967Z,99.90
2019-05-30T06:42:10.712Z,99.90
2019-05-30T06:44:41.551Z,99.90
2019-05-30T06:47:11.110Z,99.90
2019-05-30T06:49:40.493Z,99.90
2019-05-30T06:52:09.867Z,99.90
2019-05-30T06:54:39.247Z,99.90
2019-05-30T06:57:08.799Z,99.90
2019-05-30T06:59:40.195Z,99.90
2019-05-30T07:02:09.848Z,99.90
2019-05-30T07:04:50.775Z,99.90
2019-05-30T07:07:10.554Z,99.90
2019-05-30T07:09:40.541Z,99.90
2019-05-30T07:12:11.946Z,99.90
2019-05-30T07:14:41.022Z,99.90
2019-05-30T07:17:10.382Z,99.90
2019-05-30T07:19:39.689Z,99.90
2019-05-30T07:22:09.186Z,99.90
2019-05-30T07:24:38.537Z,99.90
2019-05-30T07:27:09.291Z,99.90
2019-05-30T07:29:38.632Z,99.90
2019-05-30T07:32:07.956Z,99.90
2019-05-30T07:34:37.444Z,99.90
2019-05-30T07:37:06.839Z,99.90
2019-05-30T07:39:37.644Z,99.90
2019-05-30T07:42:07.159Z,99.90
2019-05-30T07:44:37.316Z,99.90
2019-05-30T07:47:10.345Z,99.90
2019-05-30T07:49:39.833Z,99.90
2019-05-30T07:52:09.145Z,99.90
2019-05-30T07:54:39.256Z,99.90
2019-05-30T07:57:08.854Z,99.90
2019-05-30T07:59:38.695Z,99.90
2019-05-30T08:02:08.575Z,99.90
2019-05-30T08:04:37.937Z,99.90
2019-05-30T08:07:07.388Z,99.90
2019-05-30T08:09:36.735Z,99.90
2019-05-30T08:12:06.188Z,99.90
2019-05-30T08:14:35.475Z,99.90
2019-05-30T08:17:04.836Z,99.90
2019-05-30T08:19:34.445Z,99.90
2019-05-30T08:22:05.900Z,99.80
2019-05-30T08:24:36.347Z,99.40
2019-05-30T08:27:05.811Z,99.10
2019-05-30T08:29:36.369Z,98.20
2019-05-30T08:32:06.229Z,96.90
2019-05-30T08:34:36.679Z,96.10
2019-05-30T08:37:06.120Z,95.80
2019-05-30T08:39:35.504Z,95.30
2019-05-30T08:42:05.131Z,96.10
2019-05-30T08:44:35.647Z,96.80
2019-05-30T08:47:05.242Z,97.70
2019-05-30T08:49:34.601Z,97.10
2019-05-30T08:52:04.130Z,98.00
2019-05-30T08:54:34.804Z,98.90
2019-05-30T08:57:04.438Z,99.90
2019-05-30T08:59:34.481Z,99.90
2019-05-30T09:02:03.944Z,99.90
2019-05-30T09:04:33.426Z,99.90
2019-05-30T09:07:02.820Z,99.90
2019-05-30T09:09:32.183Z,99.90
2019-05-30T09:12:02.777Z,99.90
2019-05-30T09:14:32.310Z,99.90
2019-05-30T09:17:01.678Z,99.30
2019-05-30T09:19:31.037Z,97.10
2019-05-30T09:22:00.421Z,96.20
2019-05-30T09:24:29.741Z,94.70
2019-05-30T09:26:59.246Z,94.20
2019-05-30T09:29:28.593Z,94.20
2019-05-30T09:31:57.970Z,94.00
2019-05-30T09:34:27.295Z,93.90
2019-05-30T09:36:58.548Z,92.60
2019-05-30T09:39:29.851Z,91.90
2019-05-30T09:41:58.966Z,91.40
2019-05-30T09:44:28.259Z,90.80
2019-05-30T09:46:57.611Z,89.40
2019-05-30T09:49:27.083Z,88.40
2019-05-30T09:51:56.503Z,89.10
2019-05-30T09:54:25.845Z,90.20
2019-05-30T09:56:57.351Z,91.00
2019-05-30T09:59:26.609Z,91.80
2019-05-30T10:01:55.910Z,92.60
2019-05-30T10:04:25.393Z,94.00
2019-05-30T10:06:54.824Z,94.30
2019-05-30T10:09:24.152Z,95.10
2019-05-30T10:11:53.557Z,95.60
2019-05-30T10:14:22.891Z,96.30
2019-05-30T10:16:54.801Z,96.50
2019-05-30T10:19:23.412Z,96.20
2019-05-30T10:21:53.257Z,95.70
2019-05-30T10:24:22.732Z,95.70
2019-05-30T10:26:53.115Z,95.80
2019-05-30T10:29:22.602Z,95.60
2019-05-30T10:31:52.664Z,95.90
2019-05-30T10:34:22.245Z,96.10
2019-05-30T10:36:51.788Z,96.10
2019-05-30T10:39:21.334Z,95.90
2019-05-30T10:41:50.991Z,95.60
2019-05-30T10:44:20.552Z,95.80
2019-05-30T10:46:51.022Z,96.10
2019-05-30T10:49:33.703Z,96.40
2019-05-30T10:51:54.027Z,96.10
2019-05-30T10:54:23.371Z,96.50
2019-05-30T10:56:53.655Z,96.50
2019-05-30T10:59:23.202Z,96.60
2019-05-30T11:01:53.026Z,97.30
2019-05-30T11:04:22.574Z,97.20
2019-05-30T11:07:11.698Z,96.10
2019-05-30T11:09:44.156Z,95.10
2019-05-30T11:12:13.560Z,94.40
2019-05-30T11:14:43.085Z,94.10
2019-05-30T11:17:12.553Z,94.40
2019-05-30T11:19:41.925Z,95.00
2019-05-30T11:22:11.285Z,95.00
2019-05-30T11:24:42.130Z,95.30
2019-05-30T11:27:11.654Z,95.50
2019-05-30T11:29:42.699Z,95.60
2019-05-30T11:32:12.210Z,96.00
2019-05-30T11:34:44.299Z,96.10
2019-05-30T11:37:18.529Z,96.10
2019-05-30T11:39:44.768Z,96.50
2019-05-30T11:42:14.123Z,96.80
2019-05-30T11:44:43.472Z,96.60
2019-05-30T11:47:12.809Z,96.10
2019-05-30T11:49:42.141Z,95.80
2019-05-30T11:52:11.481Z,94.60
2019-05-30T11:54:40.974Z,93.60
2019-05-30T11:57:10.315Z,92.00
2019-05-30T11:59:40.530Z,90.60
2019-05-30T12:02:09.929Z,89.30
2019-05-30T12:04:39.280Z,89.40
2019-05-30T12:07:08.652Z,89.10
2019-05-30T12:09:37.991Z,88.80
2019-05-30T12:12:07.323Z,88.00
2019-05-30T12:14:36.812Z,88.20
2019-05-30T12:17:11.116Z,87.70
2019-05-30T12:19:40.588Z,87.70
2019-05-30T12:22:10.455Z,88.00
2019-05-30T12:24:40.093Z,88.30
2019-05-30T12:27:12.567Z,89.50
2019-05-30T12:29:44.354Z,90.30
2019-05-30T12:32:14.461Z,91.70
2019-05-30T12:34:44.089Z,92.70
2019-05-30T12:37:13.491Z,93.60
2019-05-30T12:39:44.643Z,93.30
2019-05-30T12:42:14.005Z,93.80
2019-05-30T12:44:43.444Z,93.70
2019-05-30T12:47:14.370Z,93.50
2019-05-30T12:49:48.376Z,93.40
2019-05-30T12:52:17.817Z,92.80
2019-05-30T12:54:49.324Z,93.00
2019-05-30T12:57:18.650Z,93.40
2019-05-30T12:59:50.913Z,93.80
2019-05-30T13:02:20.505Z,94.00
2019-05-30T13:04:49.943Z,94.10
2019-05-30T13:07:19.369Z,94.00
2019-05-30T13:09:53.088Z,94.10
2019-05-30T13:12:22.448Z,94.30
2019-05-30T13:14:55.478Z,94.80
2019-05-30T13:17:25.118Z,95.90
2019-05-30T13:19:55.048Z,96.80
2019-05-30T13:22:24.727Z,97.60
2019-05-30T13:24:55.404Z,98.00
2019-05-30T13:27:24.994Z,98.90
2019-05-30T13:29:55.950Z,99.70
2019-05-30T13:32:25.766Z,99.90
2019-05-30T13:34:55.132Z,99.90
2019-05-30T13:37:27.406Z,99.90
2019-05-30T13:39:57.072Z,99.90
2019-05-30T13:42:30.573Z,99.90
2019-05-30T13:44:59.964Z,99.90
2019-05-30T13:47:34.045Z,99.90
2019-05-30T13:50:07.698Z,99.90
2019-05-30T13:52:34.576Z,99.90
2019-05-30T13:55:05.388Z,99.90
2019-05-30T13:57:34.832Z,99.90
2019-05-30T14:00:06.024Z,99.90
2019-05-30T14:02:35.516Z,99.90
2019-05-30T14:05:06.127Z,99.90
2019-05-30T14:07:35.645Z,99.90
2019-05-30T14:10:10.520Z,99.90
2019-05-30T14:12:40.097Z,99.90
2019-05-30T14:15:14.063Z,99.90
2019-05-30T14:17:42.783Z,99.90
2019-05-30T14:20:14.280Z,99.90
2019-05-30T14:22:43.677Z,99.90
2019-05-30T14:25:13.667Z,99.90
2019-05-30T14:27:43.112Z,99.90
2019-05-30T14:30:13.360Z,99.90
2019-05-30T14:32:42.795Z,99.90
2019-05-30T14:35:13.926Z,99.90
2019-05-30T14:37:43.568Z,99.90
2019-05-30T14:40:15.961Z,99.90
2019-05-30T14:42:45.526Z,99.90
2019-05-30T14:45:17.614Z,99.90
2019-05-30T14:47:46.988Z,99.90
2019-05-30T14:50:17.298Z,99.90
2019-05-30T14:52:47.584Z,99.90
2019-05-30T14:55:17.460Z,99.90
2019-05-30T14:57:47.009Z,99.90
2019-05-30T15:00:18.413Z,99.90
2019-05-30T15:02:47.835Z,99.90
2019-05-30T15:05:20.275Z,99.90
2019-05-30T15:07:49.634Z,99.90
2019-05-30T15:10:19.603Z,99.90
2019-05-30T15:12:49.004Z,99.90
2019-05-30T15:15:18.903Z,99.90
2019-05-30T15:17:48.507Z,99.90
2019-05-30T15:20:19.327Z,99.90
2019-05-30T15:22:48.693Z,99.90
2019-05-30T15:25:19.858Z,99.90
2019-05-30T15:27:50.582Z,99.90
2019-05-30T15:30:21.936Z,99.90
2019-05-30T15:32:51.822Z,99.90
2019-05-30T15:35:21.815Z,99.90
2019-05-30T15:37:52.273Z,99.90
2019-05-30T15:40:22.107Z,99.90
2019-05-30T15:42:53.130Z,99.90
2019-05-30T15:45:22.880Z,99.90
2019-05-30T15:47:52.259Z,99.90
2019-05-30T15:50:21.626Z,99.90
2019-05-30T15:52:51.040Z,99.90
2019-05-30T15:55:23.172Z,99.90
2019-05-30T15:57:52.631Z,99.90
2019-05-30T16:00:23.011Z,99.90
2019-05-30T16:02:52.354Z,99.90
2019-05-30T16:05:21.923Z,99.90
2019-05-30T16:07:51.291Z,99.90
2019-05-30T16:10:21.061Z,99.90
2019-05-30T16:12:50.539Z,99.90
2019-05-30T16:15:20.117Z,99.90
2019-05-30T16:17:49.454Z,99.90
2019-05-30T16:20:19.949Z,99.90
2019-05-30T16:22:49.429Z,99.90
2019-05-30T16:25:19.712Z,99.90
2019-05-30T16:27:49.385Z,99.90
2019-05-30T16:30:23.543Z,99.90
2019-05-30T16:32:50.238Z,99.90
2019-05-30T16:35:22.170Z,99.90
2019-05-30T16:37:51.888Z,99.90
2019-05-30T16:40:22.822Z,99.90
2019-05-30T16:42:52.274Z,99.90
2019-05-30T16:45:24.945Z,99.90
2019-05-30T16:47:52.967Z,99.90
2019-05-30T16:50:24.400Z,99.90
2019-05-30T16:52:54.152Z,99.90
2019-05-30T16:55:24.780Z,99.90
2019-05-30T16:57:54.183Z,99.90
2019-05-30T17:00:25.304Z,99.90
2019-05-30T17:02:54.634Z,99.90
2019-05-30T17:05:24.040Z,99.90
2019-05-30T17:07:53.509Z,99.90
2019-05-30T17:10:29.490Z,99.90
2019-05-30T17:12:54.472Z,99.90
2019-05-30T17:15:24.051Z,99.90
2019-05-30T17:17:54.659Z,99.90
2019-05-30T17:20:24.517Z,99.90
2019-05-30T17:22:54.085Z,99.90
2019-05-30T17:25:23.407Z,99.90
2019-05-30T17:27:53.000Z,99.90
2019-05-30T17:30:23.740Z,99.90
2019-05-30T17:32:53.259Z,99.90
2019-05-30T17:35:22.583Z,99.90
2019-05-30T17:37:51.972Z,99.90
2019-05-30T17:40:35.579Z,99.90
2019-05-30T17:42:52.605Z,99.90
2019-05-30T17:45:23.134Z,99.90
2019-05-30T17:48:02.857Z,99.90
2019-05-30T17:50:24.042Z,99.90
2019-05-30T17:52:53.410Z,99.90
2019-05-30T17:55:23.877Z,99.90
2019-05-30T17:57:53.416Z,99.90
2019-05-30T18:00:24.600Z,99.90
2019-05-30T18:02:53.975Z,99.90
2019-05-30T18:05:43.899Z,99.90
2019-05-30T18:08:13.392Z,99.90
2019-05-30T18:10:53.385Z,99.90
2019-05-30T18:13:13.913Z,99.90
2019-05-30T18:15:43.278Z,99.70
2019-05-30T18:18:12.684Z,98.70
2019-05-30T18:20:48.478Z,98.40
2019-05-30T18:23:14.879Z,97.70
2019-05-30T18:25:44.271Z,97.60
2019-05-30T18:28:13.753Z,96.60
2019-05-30T18:30:43.826Z,96.50
2019-05-30T18:33:13.391Z,96.70
2019-05-30T18:35:42.756Z,96.60
2019-05-30T18:38:12.322Z,96.80
2019-05-30T18:40:41.880Z,97.00
2019-05-30T18:43:11.441Z,97.70
2019-05-30T18:45:41.938Z,98.40
2019-05-30T18:48:12.053Z,99.40
2019-05-30T18:50:41.585Z,99.90
2019-05-30T18:53:11.212Z,99.90
2019-05-30T18:55:42.055Z,99.90
2019-05-30T18:58:11.548Z,99.90
2019-05-30T19:00:41.004Z,99.90
2019-05-30T19:03:10.541Z,99.90
2019-05-30T19:05:39.940Z,99.90
2019-05-30T19:08:09.315Z,99.90
2019-05-30T19:10:38.815Z,99.90
2019-05-30T19:13:08.299Z,99.90
2019-05-30T19:15:37.752Z,99.90
2019-05-30T19:18:09.248Z,99.90
2019-05-30T19:20:40.062Z,99.90
2019-05-30T19:23:09.460Z,99.90
2019-05-30T19:25:38.827Z,99.90
2019-05-30T19:28:08.226Z,99.90
2019-05-30T19:30:40.979Z,99.90
2019-05-30T19:33:08.738Z,99.90
2019-05-30T19:35:38.114Z,99.90
2019-05-30T19:38:07.602Z,99.90
2019-05-30T19:40:38.095Z,99.90
2019-05-30T19:43:07.676Z,99.90
2019-05-30T19:45:38.336Z,99.90
2019-05-30T19:48:07.820Z,99.90
2019-05-30T19:50:37.344Z,99.90
2019-05-30T19:53:06.795Z,99.90
2019-05-30T19:55:37.435Z,99.90
2019-05-30T19:58:07.062Z,99.90
2019-05-30T20:00:56.716Z,99.90
2019-05-30T20:03:07.560Z,99.90
2019-05-30T20:05:37.034Z,99.90
2019-05-30T20:08:08.175Z,99.90
2019-05-30T20:10:37.559Z,99.90
2019-05-30T20:13:06.987Z,99.90
2019-05-30T20:15:37.716Z,99.90
2019-05-30T20:18:07.266Z,99.90
2019-05-30T20:20:51.209Z,99.90
2019-05-30T20:23:07.691Z,99.90
2019-05-30T20:25:41.766Z,99.90
2019-05-30T20:28:08.157Z,99.90
2019-05-30T20:30:37.645Z,99.90
2019-05-30T20:33:07.221Z,99.90
2019-05-30T20:35:38.839Z,99.90
2019-05-30T20:38:07.884Z,99.90
2019-05-30T20:40:37.286Z,99.90
2019-05-30T20:43:06.692Z,99.90
2019-05-30T20:45:39.594Z,99.90
2019-05-30T20:48:07.176Z,99.90
2019-05-30T20:50:37.136Z,99.90
2019-05-30T20:53:25.748Z,99.90
2019-05-30T20:55:55.349Z,99.90
2019-05-30T20:58:24.688Z,99.90
2019-05-30T21:00:55.198Z,99.90
2019-05-30T21:03:24.537Z,99.90
2019-05-30T21:05:55.352Z,99.90
2019-05-30T21:08:24.799Z,99.90
2019-05-30T21:10:55.662Z,99.90
2019-05-30T21:13:25.164Z,99.90
2019-05-30T21:15:55.703Z,99.90
2019-05-30T21:18:27.498Z,99.90
2019-05-30T21:20:57.032Z,99.90
2019-05-30T21:23:26.457Z,99.90
2019-05-30T21:25:57.620Z,99.90
2019-05-30T21:28:26.925Z,99.90
2019-05-30T21:30:56.371Z,99.90
2019-05-30T21:33:25.881Z,99.90
2019-05-30T21:35:57.231Z,99.90
2019-05-30T21:38:26.562Z,99.90
2019-05-30T21:40:56.093Z,99.90
2019-05-30T21:43:25.522Z,99.90
2019-05-30T21:45:54.873Z,99.90
2019-05-30T21:48:24.233Z,99.90
2019-05-30T21:50:53.532Z,99.90
2019-05-30T21:53:22.893Z,99.90
2019-05-30T21:55:52.275Z,99.90
2019-05-30T21:58:21.669Z,99.90
2019-05-30T22:01:31.288Z,99.90
2019-05-30T22:04:00.739Z,99.90
2019-05-30T22:06:30.713Z,99.90
2019-05-30T22:09:15.688Z,99.90
2019-05-30T22:11:31.339Z,99.90
2019-05-30T22:14:01.033Z,99.90
2019-05-30T22:16:30.401Z,99.90
2019-05-30T22:19:01.048Z,99.90
2019-05-30T22:21:30.843Z,99.90
2019-05-30T22:24:00.393Z,99.90
2019-05-30T22:26:29.798Z,99.90
2019-05-30T22:28:59.168Z,99.90
2019-05-30T22:31:28.539Z,99.90
2019-05-30T22:33:57.928Z,99.90
2019-05-30T22:36:27.349Z,99.90
2019-05-30T22:38:56.652Z,99.90
2019-05-30T22:41:26.107Z,99.90
2019-05-30T22:43:55.532Z,99.90
2019-05-30T22:46:25.019Z,99.90
2019-05-30T22:48:56.892Z,99.90
2019-05-30T22:51:27.600Z,99.90
2019-05-30T22:53:57.503Z,99.90
2019-05-30T22:56:26.982Z,99.90
2019-05-30T22:58:56.492Z,99.90
2019-05-30T23:01:25.836Z,99.90
2019-05-30T23:03:55.182Z,99.90
2019-05-30T23:06:24.692Z,99.90
2019-05-30T23:08:54.871Z,99.90
2019-05-30T23:11:24.545Z,99.90
2019-05-30T23:13:54.007Z,99.90
2019-05-30T23:16:23.481Z,99.90
2019-05-30T23:18:52.824Z,99.90
2019-05-30T23:21:23.950Z,99.90
2019-05-30T23:23:53.433Z,99.90
2019-05-30T23:26:22.832Z,99.90
2019-05-30T23:28:52.199Z,99.90
2019-05-30T23:31:21.513Z,99.90
2019-05-30T23:33:52.280Z,99.90
2019-05-30T23:36:21.709Z,99.90
2019-05-30T23:38:51.131Z,99.90
2019-05-30T23:41:20.495Z,99.90
2019-05-30T23:43:57.976Z,99.90
2019-05-30T23:46:20.918Z,99.90
2019-05-30T23:48:51.465Z,99.90
2019-05-30T23:51:20.979Z,99.90
2019-05-30T23:53:50.310Z,99.90
2019-05-30T23:56:19.686Z,99.90
2019-05-30T23:58:50.400Z,99.90
